createdAt,value
2019-04-30T00:02:12.294Z,13.90
2019-04-30T00:04:45.742Z,12.20
2019-04-30T00:07:19.190Z,13.20
2019-04-30T00:09:53.889Z,15.25
2019-04-30T00:12:25.729Z,13.48
2019-04-30T00:14:58.946Z,12.95
2019-04-30T00:17:30.789Z,13.62
2019-04-30T00:20:02.782Z,11.83
2019-04-30T00:22:39.287Z,15.78
2019-04-30T00:25:09.108Z,14.38
2019-04-30T00:27:45.571Z,13.93
2019-04-30T00:30:15.429Z,14.05
2019-04-30T00:32:49.164Z,13.50
2019-04-30T00:35:21.850Z,12.03
2019-04-30T00:37:57.627Z,13.25
2019-04-30T00:40:30.129Z,11.35
2019-04-30T00:43:04.461Z,10.85
2019-04-30T00:45:35.183Z,12.93
2019-04-30T00:48:06.743Z,12.93
2019-04-30T00:50:38.766Z,14.00
2019-04-30T00:53:12.411Z,11.57
2019-04-30T00:55:46.774Z,12.88
2019-04-30T00:58:17.680Z,12.68
2019-04-30T01:00:50.240Z,12.75
2019-04-30T01:03:25.227Z,11.75
2019-04-30T01:05:56.071Z,11.65
2019-04-30T01:08:28.672Z,9.65
2019-04-30T01:11:06.783Z,11.65
2019-04-30T01:13:32.826Z,9.15
2019-04-30T01:16:03.902Z,10.65
2019-04-30T01:18:35.733Z,11.50
2019-04-30T01:21:11.121Z,10.23
2019-04-30T01:23:47.865Z,10.03
2019-04-30T01:26:14.554Z,7.67
2019-04-30T01:28:46.499Z,10.32
2019-04-30T01:31:18.759Z,8.18
2019-04-30T01:33:51.464Z,8.15
2019-04-30T01:36:23.499Z,8.18
2019-04-30T01:38:55.607Z,9.30
2019-04-30T01:41:31.309Z,10.80
2019-04-30T01:44:03.704Z,8.45
2019-04-30T01:46:33.458Z,7.00
2019-04-30T01:49:04.786Z,7.60
2019-04-30T01:51:38.636Z,8.00
2019-04-30T01:54:09.489Z,7.37
2019-04-30T01:56:42.614Z,10.03
2019-04-30T01:59:15.592Z,7.22
2019-04-30T02:01:48.723Z,11.65
2019-04-30T02:04:22.075Z,9.48
2019-04-30T02:06:54.855Z,6.47
2019-04-30T02:09:26.639Z,7.92
2019-04-30T02:11:59.873Z,19.60
2019-04-30T02:14:31.585Z,29.32
2019-04-30T02:17:03.064Z,9.65
2019-04-30T02:19:34.618Z,8.48
2019-04-30T02:22:05.952Z,6.45
2019-04-30T02:24:38.699Z,8.73
2019-04-30T02:27:10.647Z,7.17
2019-04-30T02:29:43.915Z,9.23
2019-04-30T02:32:15.993Z,8.48
2019-04-30T02:34:49.770Z,7.65
2019-04-30T02:37:23.150Z,6.83
2019-04-30T02:39:55.106Z,6.20
2019-04-30T02:42:29.601Z,8.20
2019-04-30T02:45:03.727Z,7.72
2019-04-30T02:47:36.026Z,8.85
2019-04-30T02:50:15.401Z,6.42
2019-04-30T02:52:43.471Z,5.25
2019-04-30T02:55:19.459Z,9.28
2019-04-30T02:57:50.428Z,7.85
2019-04-30T03:00:22.611Z,4.90
2019-04-30T03:02:54.563Z,5.45
2019-04-30T03:05:25.760Z,5.20
2019-04-30T03:07:59.923Z,5.55
2019-04-30T03:10:30.347Z,5.83
2019-04-30T03:13:01.799Z,7.22
2019-04-30T03:15:33.734Z,6.67
2019-04-30T03:18:06.802Z,5.83
2019-04-30T03:20:40.054Z,5.15
2019-04-30T03:23:11.367Z,6.58
2019-04-30T03:25:43.110Z,7.45
2019-04-30T03:28:14.739Z,9.60
2019-04-30T03:30:46.060Z,9.13
2019-04-30T03:33:22.227Z,5.35
2019-04-30T03:35:53.986Z,5.55
2019-04-30T03:38:33.967Z,5.33
2019-04-30T03:41:09.634Z,5.17
2019-04-30T03:43:40.165Z,6.50
2019-04-30T03:46:12.206Z,6.12
2019-04-30T03:48:43.971Z,6.55
2019-04-30T03:51:15.978Z,5.12
2019-04-30T03:53:50.145Z,6.25
2019-04-30T03:56:22.818Z,7.62
2019-04-30T03:58:54.505Z,5.78
2019-04-30T04:01:29.348Z,5.00
2019-04-30T04:04:01.810Z,5.40
2019-04-30T04:06:35.034Z,6.50
2019-04-30T04:09:10.376Z,5.03
2019-04-30T04:11:43.636Z,6.62
2019-04-30T04:14:15.624Z,6.97
2019-04-30T04:16:50.403Z,6.95
2019-04-30T04:19:21.585Z,5.65
2019-04-30T04:21:52.821Z,6.30
2019-04-30T04:24:24.302Z,5.78
2019-04-30T04:26:55.895Z,9.00
2019-04-30T04:29:29.842Z,5.97
2019-04-30T04:32:00.839Z,4.95
2019-04-30T04:34:32.954Z,6.62
2019-04-30T04:37:04.445Z,5.65
2019-04-30T04:39:49.715Z,9.93
2019-04-30T04:42:20.086Z,5.58
2019-04-30T04:44:51.457Z,5.40
2019-04-30T04:47:23.438Z,5.12
2019-04-30T04:49:55.520Z,6.87
2019-04-30T04:52:31.123Z,9.90
2019-04-30T04:55:00.842Z,6.08
2019-04-30T04:57:32.269Z,9.70
2019-04-30T05:00:07.355Z,6.95
2019-04-30T05:02:36.458Z,5.95
2019-04-30T05:05:09.902Z,5.45
2019-04-30T05:07:42.185Z,5.30
2019-04-30T05:10:15.386Z,6.28
2019-04-30T05:12:50.712Z,6.05
2019-04-30T05:15:20.071Z,7.22
2019-04-30T05:17:51.848Z,6.97
2019-04-30T05:20:23.610Z,7.30
2019-04-30T05:22:55.674Z,4.83
2019-04-30T05:25:29.473Z,9.13
2019-04-30T05:28:00.929Z,8.83
2019-04-30T05:30:33.265Z,5.83
2019-04-30T05:33:05.263Z,7.47
2019-04-30T05:38:25.447Z,6.20
2019-04-30T05:40:57.262Z,6.10
2019-04-30T05:43:29.703Z,5.83
2019-04-30T05:46:01.908Z,10.32
2019-04-30T05:48:33.458Z,6.50
2019-04-30T05:51:05.603Z,5.25
2019-04-30T05:53:39.369Z,5.47
2019-04-30T05:56:10.542Z,5.15
2019-04-30T05:58:42.622Z,4.95
2019-04-30T06:01:14.421Z,5.05
2019-04-30T06:03:48.315Z,5.72
2019-04-30T06:06:19.448Z,4.65
2019-04-30T06:08:52.013Z,8.18
2019-04-30T06:11:24.442Z,5.42
2019-04-30T06:13:58.762Z,5.60
2019-04-30T06:16:30.811Z,8.80
2019-04-30T06:19:02.584Z,6.50
2019-04-30T06:21:34.497Z,8.58
2019-04-30T06:24:06.334Z,7.62
2019-04-30T06:26:39.380Z,5.53
2019-04-30T06:29:11.267Z,4.95
2019-04-30T06:31:43.611Z,4.55
2019-04-30T06:34:15.598Z,5.45
2019-04-30T06:36:51.842Z,5.97
2019-04-30T06:39:20.472Z,6.33
2019-04-30T06:42:04.042Z,4.85
2019-04-30T06:44:34.872Z,7.78
2019-04-30T06:47:01.172Z,11.15
2019-04-30T06:49:33.210Z,4.62
2019-04-30T06:52:17.092Z,5.78
2019-04-30T06:54:39.752Z,5.65
2019-04-30T06:57:12.106Z,6.33
2019-04-30T06:59:44.271Z,5.97
2019-04-30T07:02:16.476Z,11.40
2019-04-30T07:04:49.055Z,6.67
2019-04-30T07:07:23.238Z,4.20
2019-04-30T07:09:58.606Z,5.40
2019-04-30T07:12:30.605Z,5.72
2019-04-30T07:15:02.920Z,6.45
2019-04-30T07:17:34.770Z,5.60
2019-04-30T07:20:07.759Z,6.12
2019-04-30T07:22:45.124Z,5.80
2019-04-30T07:25:12.968Z,5.50
2019-04-30T07:27:44.830Z,5.70
2019-04-30T07:30:16.667Z,5.97
2019-04-30T07:32:48.789Z,6.00
2019-04-30T07:35:20.262Z,5.67
2019-04-30T07:37:54.467Z,6.53
2019-04-30T07:40:25.225Z,7.50
2019-04-30T07:42:58.973Z,7.80
2019-04-30T07:45:31.957Z,7.08
2019-04-30T07:48:03.856Z,6.92
2019-04-30T07:50:36.316Z,8.35
2019-04-30T07:53:11.270Z,7.65
2019-04-30T07:55:40.818Z,8.30
2019-04-30T07:58:12.415Z,8.55
2019-04-30T08:00:44.409Z,8.63
2019-04-30T08:03:20.091Z,6.03
2019-04-30T08:05:51.646Z,5.58
2019-04-30T08:08:25.624Z,5.70
2019-04-30T08:10:55.843Z,6.37
2019-04-30T08:13:31.995Z,8.08
2019-04-30T08:16:01.050Z,9.05
2019-04-30T08:18:33.163Z,7.70
2019-04-30T08:21:06.574Z,9.23
2019-04-30T08:23:40.203Z,10.35
2019-04-30T08:26:11.525Z,5.78
2019-04-30T08:28:43.468Z,5.12
2019-04-30T08:31:15.647Z,7.45
2019-04-30T08:33:48.917Z,6.60
2019-04-30T08:36:20.176Z,6.17
2019-04-30T08:38:52.156Z,5.60
2019-04-30T08:41:23.406Z,9.58
2019-04-30T08:43:55.458Z,5.83
2019-04-30T08:46:28.696Z,7.03
2019-04-30T08:49:00.560Z,5.47
2019-04-30T08:51:32.609Z,6.35
2019-04-30T08:54:04.264Z,8.23
2019-04-30T08:56:35.558Z,6.55
2019-04-30T08:59:10.859Z,6.20
2019-04-30T09:01:39.303Z,5.92
2019-04-30T09:04:11.053Z,6.05
2019-04-30T09:06:42.962Z,4.50
2019-04-30T09:09:16.048Z,6.15
2019-04-30T09:11:53.127Z,8.25
2019-04-30T09:14:21.258Z,4.15
2019-04-30T09:16:53.150Z,5.37
2019-04-30T09:19:25.200Z,5.62
2019-04-30T09:21:58.883Z,6.20
2019-04-30T09:24:31.068Z,6.95
2019-04-30T09:27:02.993Z,7.92
2019-04-30T09:29:35.106Z,5.28
2019-04-30T09:32:09.054Z,9.35
2019-04-30T09:34:40.556Z,6.20
2019-04-30T09:37:12.315Z,6.72
2019-04-30T09:39:44.167Z,6.92
2019-04-30T09:42:16.140Z,6.45
2019-04-30T09:44:49.226Z,5.37
2019-04-30T09:47:21.335Z,5.85
2019-04-30T09:49:53.451Z,8.98
2019-04-30T09:52:24.981Z,4.90
2019-04-30T09:54:57.095Z,5.50
2019-04-30T09:57:29.150Z,5.72
2019-04-30T10:00:00.746Z,5.03
2019-04-30T10:02:33.281Z,6.30
2019-04-30T10:05:05.057Z,6.35
2019-04-30T10:07:36.706Z,5.83
2019-04-30T10:10:11.502Z,8.53
2019-04-30T10:12:42.825Z,5.85
2019-04-30T10:15:16.006Z,6.15
2019-04-30T10:17:48.985Z,8.45
2019-04-30T10:20:23.138Z,8.38
2019-04-30T10:22:55.314Z,7.42
2019-04-30T10:25:27.893Z,7.92
2019-04-30T10:27:59.746Z,7.97
2019-04-30T10:30:33.964Z,7.90
2019-04-30T10:33:06.053Z,7.92
2019-04-30T10:35:38.506Z,8.90
2019-04-30T10:38:13.672Z,6.65
2019-04-30T10:40:45.947Z,12.95
2019-04-30T10:43:19.674Z,9.28
2019-04-30T10:45:51.156Z,11.50
2019-04-30T10:48:23.118Z,9.65
2019-04-30T10:50:55.511Z,8.93
2019-04-30T10:53:27.739Z,9.00
2019-04-30T10:55:59.772Z,7.17
2019-04-30T10:58:31.962Z,10.63
2019-04-30T11:01:03.986Z,6.90
2019-04-30T11:03:35.721Z,9.93
2019-04-30T11:06:08.676Z,6.75
2019-04-30T11:08:40.480Z,10.10
2019-04-30T11:11:12.289Z,11.45
2019-04-30T11:13:43.992Z,10.25
2019-04-30T11:16:15.644Z,10.63
2019-04-30T11:18:47.388Z,10.80
2019-04-30T11:21:19.726Z,9.13
2019-04-30T11:23:51.476Z,11.55
2019-04-30T11:26:24.020Z,11.83
2019-04-30T11:28:56.275Z,8.93
2019-04-30T11:31:28.184Z,10.48
2019-04-30T11:34:01.905Z,7.22
2019-04-30T11:36:33.749Z,7.55
2019-04-30T11:39:06.228Z,9.65
2019-04-30T11:41:39.142Z,8.33
2019-04-30T11:44:10.323Z,13.18
2019-04-30T11:46:51.765Z,10.30
2019-04-30T11:49:23.611Z,11.25
2019-04-30T11:51:56.288Z,11.83
2019-04-30T11:54:29.882Z,8.78
2019-04-30T11:57:01.891Z,17.75
2019-04-30T11:59:42.342Z,9.93
2019-04-30T12:02:15.580Z,10.58
2019-04-30T12:04:50.125Z,11.53
2019-04-30T12:07:21.962Z,13.70
2019-04-30T12:09:54.630Z,7.47
2019-04-30T12:12:28.942Z,13.30
2019-04-30T12:15:02.759Z,11.00
2019-04-30T12:17:34.236Z,11.88
2019-04-30T12:20:08.622Z,12.05
2019-04-30T12:22:40.252Z,8.68
2019-04-30T12:25:12.373Z,13.08
2019-04-30T12:27:44.145Z,9.95
2019-04-30T12:30:20.532Z,13.20
2019-04-30T12:32:56.911Z,10.70
2019-04-30T12:35:30.128Z,13.62
2019-04-30T12:38:02.340Z,12.68
2019-04-30T12:40:34.067Z,10.82
2019-04-30T12:43:06.270Z,11.38
2019-04-30T12:45:39.389Z,9.75
2019-04-30T12:48:12.152Z,12.93
2019-04-30T12:50:44.422Z,8.70
2019-04-30T12:53:16.872Z,18.82
2019-04-30T12:55:49.200Z,13.50
2019-04-30T12:58:21.284Z,11.40
2019-04-30T13:00:53.322Z,12.63
2019-04-30T13:03:25.405Z,9.78
2019-04-30T13:05:57.513Z,15.83
2019-04-30T13:08:30.189Z,12.35
2019-04-30T13:11:02.710Z,11.75
2019-04-30T13:13:35.012Z,14.50
2019-04-30T13:16:08.545Z,15.30
2019-04-30T13:18:40.548Z,16.97
2019-04-30T13:21:13.728Z,16.30
2019-04-30T13:23:45.928Z,14.23
2019-04-30T13:26:18.618Z,11.43
2019-04-30T13:28:52.041Z,11.08
2019-04-30T13:31:24.231Z,11.80
2019-04-30T13:34:00.944Z,12.43
2019-04-30T13:36:30.649Z,13.22
2019-04-30T13:39:06.740Z,12.55
2019-04-30T13:42:01.760Z,13.62
2019-04-30T13:44:35.366Z,14.20
2019-04-30T13:47:10.679Z,9.23
2019-04-30T13:49:40.599Z,12.82
2019-04-30T13:52:12.819Z,9.55
2019-04-30T13:54:44.939Z,11.33
2019-04-30T13:57:17.014Z,12.30
2019-04-30T13:59:50.803Z,11.40
2019-04-30T14:02:21.441Z,15.05
2019-04-30T14:04:54.532Z,8.48
2019-04-30T14:07:27.503Z,8.80
2019-04-30T14:09:59.710Z,8.18
2019-04-30T14:12:32.338Z,9.63
2019-04-30T14:15:03.854Z,10.95
2019-04-30T14:17:35.095Z,10.55
2019-04-30T14:20:08.474Z,14.47
2019-04-30T14:22:40.291Z,12.35
2019-04-30T14:25:13.259Z,15.00
2019-04-30T14:27:52.256Z,13.32
2019-04-30T14:30:19.230Z,14.10
2019-04-30T14:32:50.869Z,12.60
2019-04-30T14:35:21.946Z,13.88
2019-04-30T14:37:53.755Z,11.65
2019-04-30T14:40:25.929Z,12.35
2019-04-30T14:42:59.781Z,13.83
2019-04-30T14:45:33.460Z,13.03
2019-04-30T14:48:07.327Z,10.88
2019-04-30T14:50:41.451Z,12.03
2019-04-30T14:53:14.660Z,14.10
2019-04-30T14:55:49.551Z,13.03
2019-04-30T14:58:22.990Z,13.15
2019-04-30T15:00:54.544Z,14.25
2019-04-30T15:03:29.393Z,14.20
2019-04-30T15:06:00.979Z,13.90
2019-04-30T15:08:33.215Z,18.50
2019-04-30T15:11:04.759Z,14.90
2019-04-30T15:13:36.515Z,15.00
2019-04-30T15:16:08.290Z,15.10
2019-04-30T15:18:40.323Z,15.15
2019-04-30T15:21:12.090Z,18.30
2019-04-30T15:23:44.759Z,15.93
2019-04-30T15:26:22.219Z,15.58
2019-04-30T15:28:49.268Z,14.10
2019-04-30T15:31:20.579Z,12.82
2019-04-30T15:34:02.674Z,14.28
2019-04-30T15:36:28.841Z,16.70
2019-04-30T15:39:01.198Z,14.25
2019-04-30T15:41:33.926Z,13.80
2019-04-30T15:44:05.436Z,14.40
2019-04-30T15:46:37.226Z,14.95
2019-04-30T15:49:08.870Z,16.10
2019-04-30T15:51:40.262Z,21.68
2019-04-30T15:54:12.015Z,13.85
2019-04-30T15:56:43.981Z,16.25
2019-04-30T15:59:18.878Z,13.40
2019-04-30T16:01:51.738Z,17.90
2019-04-30T16:04:24.633Z,15.40
2019-04-30T16:06:58.395Z,14.03
2019-04-30T16:09:30.931Z,15.00
2019-04-30T16:12:04.079Z,13.18
2019-04-30T16:14:36.849Z,12.98
2019-04-30T16:17:09.991Z,17.75
2019-04-30T16:19:42.173Z,13.62
2019-04-30T16:22:14.000Z,13.83
2019-04-30T16:24:46.178Z,13.40
2019-04-30T16:27:19.146Z,11.38
2019-04-30T16:29:51.365Z,10.35
2019-04-30T16:32:25.493Z,8.30
2019-04-30T16:34:59.147Z,10.78
2019-04-30T16:37:30.597Z,10.45
2019-04-30T16:40:01.947Z,7.83
2019-04-30T16:42:33.439Z,8.90
2019-04-30T16:45:05.710Z,8.33
2019-04-30T16:47:38.570Z,9.03
2019-04-30T16:50:10.761Z,9.33
2019-04-30T16:52:43.017Z,9.85
2019-04-30T16:55:14.598Z,8.95
2019-04-30T16:57:46.772Z,11.20
2019-04-30T17:00:20.125Z,7.58
2019-04-30T17:02:53.035Z,9.58
2019-04-30T17:05:25.870Z,8.08
2019-04-30T17:08:01.839Z,8.73
2019-04-30T17:10:34.960Z,7.58
2019-04-30T17:13:09.270Z,8.55
2019-04-30T17:15:42.190Z,7.53
2019-04-30T17:18:13.675Z,9.58
2019-04-30T17:20:45.774Z,9.03
2019-04-30T17:23:19.275Z,8.73
2019-04-30T17:25:51.026Z,10.05
2019-04-30T17:28:22.925Z,7.97
2019-04-30T17:30:55.063Z,9.23
2019-04-30T17:33:26.944Z,10.30
2019-04-30T17:35:59.173Z,8.10
2019-04-30T17:38:31.438Z,9.58
2019-04-30T17:41:03.267Z,10.58
2019-04-30T17:43:35.582Z,11.40
2019-04-30T17:46:07.245Z,10.50
2019-04-30T17:48:39.397Z,10.43
2019-04-30T17:51:11.520Z,9.33
2019-04-30T17:53:44.854Z,8.58
2019-04-30T17:56:17.008Z,11.48
2019-04-30T17:58:48.836Z,11.55
2019-04-30T18:01:21.057Z,11.35
2019-04-30T18:03:53.175Z,8.85
2019-04-30T18:06:24.357Z,9.78
2019-04-30T18:08:55.867Z,10.25
2019-04-30T18:11:29.446Z,9.10
2019-04-30T18:14:00.289Z,7.97
2019-04-30T18:16:31.698Z,11.70
2019-04-30T18:19:04.728Z,12.45
2019-04-30T18:21:38.360Z,10.70
2019-04-30T18:24:11.790Z,10.30
2019-04-30T18:26:45.627Z,10.85
2019-04-30T18:29:17.006Z,11.95
2019-04-30T18:31:49.197Z,12.33
2019-04-30T18:34:20.870Z,8.93
2019-04-30T18:36:52.778Z,11.20
2019-04-30T18:39:24.231Z,10.23
2019-04-30T18:41:56.077Z,10.55
2019-04-30T18:44:29.386Z,11.65
2019-04-30T18:47:00.967Z,8.53
2019-04-30T18:49:33.275Z,10.80
2019-04-30T18:52:05.163Z,10.85
2019-04-30T18:54:37.191Z,9.60
2019-04-30T18:57:09.394Z,11.73
2019-04-30T18:59:41.497Z,9.35
2019-04-30T19:02:14.883Z,11.12
2019-04-30T19:04:46.624Z,13.43
2019-04-30T19:07:19.894Z,12.10
2019-04-30T19:09:52.879Z,12.95
2019-04-30T19:12:26.098Z,14.87
2019-04-30T19:14:59.456Z,11.43
2019-04-30T19:17:32.671Z,11.22
2019-04-30T19:20:05.720Z,10.40
2019-04-30T19:22:39.603Z,12.90
2019-04-30T19:25:10.923Z,11.57
2019-04-30T19:27:42.584Z,13.05
2019-04-30T19:30:14.505Z,10.85
2019-04-30T19:32:46.577Z,10.13
2019-04-30T19:35:18.873Z,11.73
2019-04-30T19:37:50.377Z,12.82
2019-04-30T19:40:22.187Z,9.45
2019-04-30T19:42:53.984Z,11.57
2019-04-30T19:45:25.872Z,12.33
2019-04-30T19:47:58.670Z,10.88
2019-04-30T19:50:30.299Z,13.22
2019-04-30T19:53:01.837Z,12.73
2019-04-30T19:55:33.295Z,14.00
2019-04-30T19:58:05.018Z,12.03
2019-04-30T20:00:38.659Z,10.50
2019-04-30T20:03:09.795Z,11.68
2019-04-30T20:05:41.985Z,10.93
2019-04-30T20:08:13.969Z,11.35
2019-04-30T20:10:46.111Z,10.00
2019-04-30T20:13:30.609Z,9.88
2019-04-30T20:15:51.690Z,11.95
2019-04-30T20:18:23.627Z,11.48
2019-04-30T20:20:56.880Z,14.33
2019-04-30T20:23:28.497Z,11.10
2019-04-30T20:26:00.287Z,11.78
2019-04-30T20:28:39.047Z,11.43
2019-04-30T20:31:05.498Z,10.65
2019-04-30T20:33:38.900Z,9.45
2019-04-30T20:36:11.022Z,10.13
2019-04-30T20:38:44.267Z,11.50
2019-04-30T20:41:16.231Z,9.28
2019-04-30T20:43:49.346Z,9.18
2019-04-30T20:46:32.103Z,10.13
2019-04-30T20:48:53.408Z,11.80
2019-04-30T20:51:25.515Z,8.73
2019-04-30T20:53:59.090Z,11.10
2019-04-30T20:56:30.441Z,8.80
2019-04-30T20:59:06.276Z,10.48
2019-04-30T21:01:36.364Z,9.50
2019-04-30T21:04:08.365Z,12.93
2019-04-30T21:06:40.421Z,9.23
2019-04-30T21:09:12.174Z,10.98
2019-04-30T21:11:45.232Z,8.78
2019-04-30T21:14:19.129Z,10.80
2019-04-30T21:16:49.583Z,11.60
2019-04-30T21:19:21.071Z,9.00
2019-04-30T21:21:56.024Z,10.90
2019-04-30T21:24:27.577Z,12.55
2019-04-30T21:26:59.623Z,12.35
2019-04-30T21:29:31.345Z,11.05
2019-04-30T21:32:04.153Z,10.00
2019-04-30T21:34:35.802Z,10.98
2019-04-30T21:37:09.332Z,11.08
2019-04-30T21:39:41.090Z,10.55
2019-04-30T21:42:12.959Z,10.55
2019-04-30T21:44:45.082Z,8.93
2019-04-30T21:47:17.123Z,15.08
2019-04-30T21:49:48.994Z,11.43
2019-04-30T21:52:20.911Z,11.28
2019-04-30T21:55:02.855Z,12.07
2019-04-30T21:57:34.707Z,14.05
2019-04-30T22:00:08.916Z,9.30
2019-04-30T22:02:41.282Z,10.03
2019-04-30T22:05:14.114Z,13.50
2019-04-30T22:07:45.758Z,10.80
2019-04-30T22:10:17.319Z,14.18
2019-04-30T22:12:49.093Z,11.10
2019-04-30T22:15:20.960Z,16.00
2019-04-30T22:17:52.824Z,12.58
2019-04-30T22:20:24.562Z,12.03
2019-04-30T22:22:55.719Z,11.73
2019-04-30T22:25:29.331Z,10.15
2019-04-30T22:28:00.684Z,11.50
2019-04-30T22:30:32.187Z,11.55
2019-04-30T22:33:04.593Z,10.53
2019-04-30T22:35:37.672Z,9.73
2019-04-30T22:38:10.398Z,14.03
2019-04-30T22:40:42.146Z,12.05
2019-04-30T22:43:14.104Z,10.13
2019-04-30T22:45:47.069Z,10.43
2019-04-30T22:48:18.870Z,9.70
2019-04-30T22:50:50.993Z,9.48
2019-04-30T22:53:23.191Z,13.70
2019-04-30T22:55:55.023Z,10.50
2019-04-30T22:58:29.691Z,10.82
2019-04-30T23:04:05.965Z,9.48
2019-04-30T23:06:40.847Z,12.78
2019-04-30T23:09:15.589Z,10.20
2019-04-30T23:11:49.700Z,10.70
2019-04-30T23:14:22.958Z,13.20
2019-04-30T23:16:54.096Z,11.30
2019-04-30T23:19:26.546Z,9.30
2019-04-30T23:21:58.310Z,10.03
2019-04-30T23:24:33.958Z,10.08
2019-04-30T23:27:05.654Z,16.50
2019-04-30T23:29:36.589Z,10.48
2019-04-30T23:35:39.130Z,12.85
2019-04-30T23:38:13.840Z,11.75
2019-04-30T23:40:47.267Z,12.28
2019-04-30T23:43:19.264Z,14.20
2019-04-30T23:51:52.232Z,12.00
2019-04-30T23:54:24.290Z,12.58
2019-04-30T23:56:59.163Z,10.15
2019-04-30T23:59:30.813Z,11.33
